Current Weather

New Braunfels Ntl

New Braunfels, Texas (KBAZ)

Report from: Monday, September 26, 2022 6:51 PM CDT
Current time: Monday, September 26, 2022 7:35 PM CDT

Nearby weather
Weather history
Weather forecast

Temperature32.2°C (90.0°F)
Heat index30.2°C (86.4°F)
Dew point7.2°C (45.0°F)
Winds 12 kts (6.2 m/s, 13.8 mph) North-Northeast (30°)
Visibility10 mi. (16.1 km)
Clouds Sky clear
Altimeter29.99 in.Hg (1016 mB)
Relative humidity21 %
Density altitude2,035 ft. (620 m)
Sea-level pressure101.5 kPa (1015 mB, 29.96 in.Hg)
Max temp last 6 hours35.6°C (96.1°F)
Min temp last 6 hours32.2°C (90.0°F)
Remarks Fully automated report
Automated weather observing station with precipitation discriminator
Pressure rising more quickly
Flight conditions Visual Meteorological Conditions
Raw dataKBAZ 262351Z AUTO 03012KT 10SM CLR 32/07 A2999 RMK AO2 SLP146 T03220072 10356 20322 53002
An unhandled exception has occurred. See browser dev tools for details. Reload 🗙